createdAt,value
2022-12-01T00:03:25.735Z,5.40
2022-12-01T00:07:27.679Z,5.30
2022-12-01T00:11:29.355Z,5.20
2022-12-01T00:15:32.195Z,5.30
2022-12-01T00:19:33.761Z,5.30
2022-12-01T00:23:35.296Z,5.30
2022-12-01T00:27:36.894Z,5.20
2022-12-01T00:31:38.501Z,5.20
2022-12-01T00:35:40.077Z,5.20
2022-12-01T00:39:41.609Z,5.20
2022-12-01T00:43:43.144Z,5.10
2022-12-01T00:47:44.701Z,5.10
2022-12-01T00:51:46.226Z,5.10
2022-12-01T00:55:47.796Z,5.20
2022-12-01T00:59:49.739Z,5.20
2022-12-01T01:03:51.586Z,5.20
2022-12-01T01:07:53.235Z,5.10
2022-12-01T01:11:54.948Z,5.20
2022-12-01T01:15:57.829Z,5.20
2022-12-01T01:19:59.434Z,5.20
2022-12-01T01:24:01.243Z,5.20
2022-12-01T01:28:02.882Z,5.20
2022-12-01T01:32:04.535Z,5.20
2022-12-01T01:36:06.201Z,5.20
2022-12-01T01:40:08.014Z,5.20
2022-12-01T01:44:28.200Z,5.20
2022-12-01T01:48:29.728Z,5.20
2022-12-01T01:52:31.488Z,5.10
2022-12-01T01:56:33.215Z,5.10
2022-12-01T02:00:35.873Z,5.10
2022-12-01T02:04:41.784Z,5.00
2022-12-01T02:08:43.364Z,5.20
2022-12-01T02:13:03.816Z,5.20
2022-12-01T02:17:11.631Z,5.20
2022-12-01T02:21:18.957Z,5.10
2022-12-01T02:25:35.364Z,5.10
2022-12-01T02:29:36.897Z,5.20
2022-12-01T02:33:41.846Z,5.10
2022-12-01T02:38:02.115Z,5.20
2022-12-01T02:42:34.279Z,5.20
2022-12-01T02:46:39.380Z,5.10
2022-12-01T02:50:42.070Z,5.10
2022-12-01T02:54:44.093Z,5.10
2022-12-01T02:58:45.629Z,5.10
2022-12-01T03:02:58.055Z,5.00
2022-12-01T03:07:10.647Z,5.00
2022-12-01T03:11:27.258Z,5.10
2022-12-01T03:15:29.084Z,5.00
2022-12-01T03:19:52.483Z,5.10
2022-12-01T03:24:11.737Z,5.00
2022-12-01T03:28:22.945Z,5.00
2022-12-01T03:32:27.692Z,4.90
2022-12-01T03:36:50.777Z,4.90
2022-12-01T03:40:55.048Z,5.00
2022-12-01T03:44:58.022Z,5.00
2022-12-01T03:48:59.593Z,5.00
2022-12-01T03:53:19.148Z,5.00
2022-12-01T03:57:25.808Z,5.00
2022-12-01T04:01:31.862Z,4.90
2022-12-01T04:05:34.457Z,5.00
2022-12-01T04:09:36.130Z,5.00
2022-12-01T04:13:37.657Z,5.00
2022-12-01T04:17:39.477Z,5.00
2022-12-01T04:21:41.070Z,5.00
2022-12-01T04:25:42.645Z,5.00
2022-12-01T04:29:44.288Z,5.00
2022-12-01T04:33:46.186Z,5.00
2022-12-01T04:37:47.754Z,5.00
2022-12-01T04:41:49.349Z,5.00
2022-12-01T04:45:51.039Z,5.00
2022-12-01T04:49:53.276Z,4.90
2022-12-01T04:53:54.942Z,5.00
2022-12-01T04:57:56.642Z,5.00
2022-12-01T05:01:58.667Z,4.90
2022-12-01T05:06:01.612Z,5.00
2022-12-01T05:10:04.165Z,4.90
2022-12-01T05:14:06.457Z,4.90
2022-12-01T05:18:08.238Z,5.00
2022-12-01T05:22:12.110Z,5.00
2022-12-01T05:26:13.916Z,4.90
2022-12-01T05:30:15.587Z,4.90
2022-12-01T05:34:17.178Z,4.90
2022-12-01T05:38:20.830Z,4.90
2022-12-01T05:42:22.806Z,4.90
2022-12-01T05:46:24.758Z,5.00
2022-12-01T05:50:27.409Z,5.00
2022-12-01T05:54:30.067Z,5.00
2022-12-01T05:58:39.452Z,5.00
2022-12-01T06:02:53.714Z,4.90
2022-12-01T06:06:56.004Z,4.90
2022-12-01T06:10:57.675Z,5.00
2022-12-01T06:15:01.205Z,5.00
2022-12-01T06:19:14.310Z,4.90
2022-12-01T06:23:16.229Z,4.90
2022-12-01T06:27:18.668Z,5.10
2022-12-01T06:31:22.932Z,5.00
2022-12-01T06:35:24.538Z,5.10
2022-12-01T06:39:28.594Z,4.90
2022-12-01T06:43:30.422Z,4.90
2022-12-01T06:47:32.593Z,4.90
2022-12-01T06:51:34.328Z,4.90
2022-12-01T06:55:36.337Z,5.00
2022-12-01T06:59:38.685Z,5.00
2022-12-01T07:03:40.585Z,5.00
2022-12-01T07:20:33.562Z,4.80
2022-12-01T07:24:39.258Z,4.80
2022-12-01T07:28:49.599Z,4.70
2022-12-01T07:37:07.883Z,4.70
2022-12-01T07:41:12.554Z,4.80
2022-12-01T07:45:14.587Z,4.70
2022-12-01T07:49:17.296Z,4.70
2022-12-01T07:53:19.870Z,4.70
2022-12-01T07:57:33.668Z,4.80
2022-12-01T08:01:35.395Z,4.80
2022-12-01T08:09:53.530Z,4.70
2022-12-01T08:13:55.572Z,4.70
2022-12-01T08:18:08.887Z,4.80
2022-12-01T08:22:10.722Z,4.70
2022-12-01T08:30:30.013Z,4.80
2022-12-01T08:34:35.015Z,4.90
2022-12-01T08:42:57.792Z,4.90
2022-12-01T08:46:59.709Z,4.90
2022-12-01T08:55:27.580Z,4.80
2022-12-01T08:59:51.937Z,4.80
2022-12-01T09:04:05.935Z,4.70
2022-12-01T09:08:26.778Z,4.70
2022-12-01T09:12:29.806Z,4.70
2022-12-01T09:16:33.540Z,4.70
2022-12-01T09:24:53.729Z,4.80
2022-12-01T09:28:56.858Z,4.70
2022-12-01T09:33:00.853Z,4.80
2022-12-01T09:41:21.707Z,4.80
2022-12-01T09:45:34.956Z,4.90
2022-12-01T09:49:40.212Z,4.90
2022-12-01T09:58:02.415Z,4.80
2022-12-01T10:06:41.102Z,4.90
2022-12-01T10:10:46.380Z,4.90
2022-12-01T10:14:50.390Z,4.90
2022-12-01T10:18:57.961Z,4.80
2022-12-01T10:23:19.773Z,4.90
2022-12-01T10:27:31.109Z,4.90
2022-12-01T10:31:36.834Z,4.80
2022-12-01T10:35:42.612Z,4.90
2022-12-01T10:39:54.317Z,4.90
2022-12-01T10:44:08.912Z,4.90
2022-12-01T10:48:15.139Z,4.90
2022-12-01T10:52:35.170Z,4.90
2022-12-01T10:56:42.109Z,4.80
2022-12-01T11:00:59.640Z,4.80
2022-12-01T11:05:03.285Z,4.80
2022-12-01T11:09:07.502Z,4.90
2022-12-01T11:13:15.423Z,5.00
2022-12-01T11:17:23.129Z,4.90
2022-12-01T11:21:28.211Z,4.80
2022-12-01T11:25:29.792Z,4.90
2022-12-01T11:29:36.181Z,4.90
2022-12-01T11:33:49.951Z,4.90
2022-12-01T11:38:21.028Z,4.90
2022-12-01T11:42:28.984Z,5.00
2022-12-01T11:46:36.956Z,5.00
2022-12-01T11:50:40.661Z,4.90
2022-12-01T11:54:54.593Z,5.00
2022-12-01T11:59:01.255Z,4.90
2022-12-01T12:03:09.027Z,5.00
2022-12-01T12:07:17.098Z,5.00
2022-12-01T12:11:19.862Z,5.00
2022-12-01T12:15:27.816Z,5.00
2022-12-01T12:19:59.975Z,5.10
2022-12-01T12:24:18.154Z,5.00
2022-12-01T12:28:28.332Z,5.00
2022-12-01T12:32:53.415Z,5.10
2022-12-01T12:37:19.854Z,5.10
2022-12-01T12:41:29.417Z,5.00
2022-12-01T12:45:31.184Z,5.10
2022-12-01T12:49:44.928Z,5.00
2022-12-01T12:53:49.401Z,5.00
2022-12-01T12:57:57.228Z,4.90
2022-12-01T13:02:17.760Z,5.00
2022-12-01T13:06:19.363Z,5.00
2022-12-01T13:10:27.045Z,5.10
2022-12-01T13:14:43.578Z,5.00
2022-12-01T13:18:56.143Z,5.10
2022-12-01T13:22:59.188Z,5.00
2022-12-01T13:27:03.226Z,5.10
2022-12-01T13:31:09.008Z,5.10
2022-12-01T13:35:27.689Z,4.90
2022-12-01T13:39:35.666Z,5.00
2022-12-01T13:43:37.727Z,5.00
2022-12-01T13:47:39.676Z,4.90
2022-12-01T13:52:00.096Z,5.00
2022-12-01T13:56:17.259Z,4.80
2022-12-01T14:00:22.387Z,4.90
2022-12-01T14:04:26.036Z,4.90
2022-12-01T14:08:27.648Z,4.80
2022-12-01T14:12:31.525Z,4.80
2022-12-01T14:16:50.187Z,4.80
2022-12-01T14:20:52.098Z,4.90
2022-12-01T14:24:53.953Z,4.80
2022-12-01T14:28:55.608Z,4.80
2022-12-01T14:33:16.030Z,4.70
2022-12-01T14:37:19.409Z,4.70
2022-12-01T14:41:25.468Z,4.80
2022-12-01T14:45:30.187Z,4.80
2022-12-01T14:49:33.937Z,4.70
2022-12-01T14:53:37.034Z,4.70
2022-12-01T14:57:42.036Z,4.90
2022-12-01T15:01:43.669Z,4.70
2022-12-01T15:05:45.526Z,4.80
2022-12-01T15:10:01.782Z,4.70
2022-12-01T15:14:03.450Z,4.80
2022-12-01T15:18:20.389Z,4.80
2022-12-01T15:22:24.095Z,4.70
2022-12-01T15:26:28.802Z,4.60
2022-12-01T15:30:30.604Z,4.70
2022-12-01T15:34:37.015Z,4.70
2022-12-01T15:38:40.467Z,4.70
2022-12-01T15:42:42.996Z,4.70
2022-12-01T15:46:44.950Z,4.70
2022-12-01T15:50:49.939Z,4.60
2022-12-01T15:54:51.965Z,4.70
2022-12-01T15:58:56.522Z,4.80
2022-12-01T16:02:59.658Z,4.80
2022-12-01T16:07:03.903Z,4.70
2022-12-01T16:11:09.533Z,4.70
2022-12-01T16:15:18.364Z,4.70
2022-12-01T16:19:26.284Z,4.80
2022-12-01T16:23:27.959Z,4.70
2022-12-01T16:27:30.463Z,4.70
2022-12-01T16:31:32.492Z,4.80
2022-12-01T16:35:34.128Z,4.80
2022-12-01T16:39:35.703Z,4.70
2022-12-01T16:43:37.232Z,4.70
2022-12-01T16:47:38.816Z,4.70
2022-12-01T16:51:55.447Z,4.60
2022-12-01T16:55:59.793Z,4.70
2022-12-01T17:00:01.425Z,4.70
2022-12-01T17:04:07.449Z,4.70
2022-12-01T17:08:09.488Z,4.60
2022-12-01T17:12:11.325Z,4.60
2022-12-01T17:16:18.183Z,4.60
2022-12-01T17:20:20.472Z,4.70
2022-12-01T17:24:22.034Z,4.80
2022-12-01T17:28:23.700Z,4.70
2022-12-01T17:32:26.145Z,4.70
2022-12-01T17:36:27.743Z,4.80
2022-12-01T17:40:29.322Z,4.60
2022-12-01T17:44:31.092Z,4.50
2022-12-01T17:48:36.639Z,4.50
2022-12-01T17:52:38.253Z,4.50
2022-12-01T17:56:39.816Z,4.40
2022-12-01T18:00:41.402Z,4.50
2022-12-01T18:04:42.998Z,4.40
2022-12-01T18:08:44.904Z,4.40
2022-12-01T18:12:46.529Z,4.50
2022-12-01T18:16:48.445Z,4.50
2022-12-01T18:20:50.023Z,4.50
2022-12-01T18:24:52.370Z,4.60
2022-12-01T18:28:58.600Z,4.50
2022-12-01T18:33:00.844Z,4.50
2022-12-01T18:37:03.376Z,4.50
2022-12-01T18:41:05.046Z,4.40
2022-12-01T18:45:07.042Z,4.50
2022-12-01T18:49:09.086Z,4.50
2022-12-01T18:53:10.696Z,4.60
2022-12-01T18:57:14.593Z,4.50
2022-12-01T19:01:18.743Z,4.50
2022-12-01T19:05:21.175Z,4.50
2022-12-01T19:09:22.880Z,4.40
2022-12-01T19:13:24.457Z,4.40
2022-12-01T19:17:26.054Z,4.40
2022-12-01T19:21:27.939Z,4.40
2022-12-01T19:25:29.560Z,4.40
2022-12-01T19:29:31.317Z,4.40
2022-12-01T19:33:33.142Z,4.40
2022-12-01T19:37:34.875Z,4.30
2022-12-01T19:41:36.772Z,4.30
2022-12-01T19:45:39.251Z,4.30
2022-12-01T19:49:42.279Z,4.40
2022-12-01T19:53:44.240Z,4.50
2022-12-01T19:57:50.171Z,4.40
2022-12-01T20:01:51.953Z,4.50
2022-12-01T20:05:53.710Z,4.40
2022-12-01T20:09:55.398Z,4.50
2022-12-01T20:13:57.140Z,4.50
2022-12-01T20:17:58.691Z,4.60
2022-12-01T20:22:00.363Z,4.50
2022-12-01T20:26:03.023Z,4.50
2022-12-01T20:30:05.110Z,4.50
2022-12-01T20:34:09.273Z,4.60
2022-12-01T20:38:11.439Z,4.60
2022-12-01T20:42:13.041Z,4.60
2022-12-01T20:46:15.262Z,4.60
2022-12-01T20:50:16.959Z,4.50
2022-12-01T20:54:27.949Z,4.50
2022-12-01T20:58:35.916Z,4.40
2022-12-01T21:02:39.372Z,4.40
2022-12-01T21:06:41.337Z,4.50
2022-12-01T21:10:45.056Z,4.30
2022-12-01T21:15:09.934Z,4.40
2022-12-01T21:19:15.758Z,4.40
2022-12-01T21:23:17.976Z,4.40
2022-12-01T21:27:19.702Z,4.40
2022-12-01T21:31:21.413Z,4.40
2022-12-01T21:35:26.950Z,4.40
2022-12-01T21:39:29.640Z,4.40
2022-12-01T21:43:36.671Z,4.30
2022-12-01T21:47:39.763Z,4.30
2022-12-01T21:51:41.463Z,4.30
2022-12-01T21:55:44.404Z,4.30
2022-12-01T21:59:46.092Z,4.30
2022-12-01T22:03:48.043Z,4.00
2022-12-01T22:07:49.690Z,4.00
2022-12-01T22:11:59.565Z,3.80
2022-12-01T22:16:01.246Z,3.70
2022-12-01T22:20:14.858Z,3.70
2022-12-01T22:24:26.972Z,3.70
2022-12-01T22:28:28.927Z,3.70
2022-12-01T22:32:52.878Z,3.80
2022-12-01T22:36:54.699Z,3.60
2022-12-01T22:41:03.917Z,3.50
2022-12-01T22:45:19.687Z,3.60
2022-12-01T22:49:22.662Z,3.60
2022-12-01T22:53:31.002Z,3.70
2022-12-01T22:57:33.439Z,3.60
2022-12-01T23:01:46.646Z,3.70
2022-12-01T23:05:53.325Z,3.70
2022-12-01T23:10:21.502Z,3.70
2022-12-01T23:14:23.486Z,3.70
2022-12-01T23:18:39.218Z,3.80
2022-12-01T23:22:40.793Z,4.00
2022-12-01T23:26:44.389Z,4.00
2022-12-01T23:30:47.633Z,3.70
2022-12-01T23:34:49.615Z,3.80
2022-12-01T23:38:52.713Z,3.70
2022-12-01T23:42:54.836Z,3.60
2022-12-01T23:46:57.425Z,3.80
2022-12-01T23:50:59.618Z,3.60
2022-12-01T23:55:02.189Z,3.60
2022-12-01T23:59:06.160Z,3.60
